メインページ
METAR-TAF:

METAR-TAF

空港 :

クアトロ・デ・フェベレイロ空港

ルアンダ, アンゴラ

緯度: 08-51S, 経度: 013-14E, 海抜: 74m

現時点の気象観測

当レポートは33分前の18:00(UTC)に作成
南/南西の風 6kt
気温 23°C
湿度 78%
気圧 1015 hPa
視程: 8000m
高度2000ftの雲は散在している

METAR: FNLU 151800Z 21006KT 8000 SCT020 23/19 Q1015 NOSIG

時間: 19:33 (18:33 UTC)

予報

当レポートは1時間33分前の17:00(UTC)に作成
予報は15日の 18時(UTC)から 16日の 24時(UTC)まで有効
南/南西の風 6kt
視程10km以上
高度2000ftの雲は散在している
15日の 19時(UTC)から 15日の 21時(UTC)まで徐々に
視程: 8000m
高度2000ftの千切れ雲あり
16日の 03時(UTC)から 16日の 07時(UTC)まで一時的に
南東の風 8kt
視程: 5000m
高度2000ftの曇り
16日の 10時(UTC)から 16日の 12時(UTC)まで徐々に
西の風 8kt
視程: 9000m
高度2000ftの千切れ雲あり
16日の 15時(UTC)から 16日の 19時(UTC)まで一時的に
視程10km以上
高度2200ftの雲は散在している

TAF: FNLU 151700Z 1518/1624 21006KT 9999 SCT020 BECMG 1519/1521 8000 BKN020 TEMPO 1603/1607 13008KT 5000 BR OVC020 BECMG 1610/1612 27008KT 9000 BKN020 TEMPO 1615/1619 9999 SCT022

4,000以上の空港の気象観測と天気予報(METAR報とTAF報)

利用可能な観測所は地図上に黄色い丸と赤い丸で示す。

丸の上にカーソルを重ねると観測所名を参照できる。

次にクリックすると気象観測と天気予報を参照できる。

マップの切り替え:黒色「×」印の緑ボタンをクリックして拡大、「-」印の緑ボタンをクリックして縮小、緑色の三角印をクリックして隣りの地図に切り替え


METAR-TAF: